Tindbinbilla Nature Rese, Australia

1:11 AM AEDT on December 07, 2016 (GMT +1100)
Kambah | | Change Station

Elev 2093 ft 35.37 °S, 149.05 °E | Updated 1 minute ago

Clear
Clear
60.0 °F
Feels Like 60.0 °F
N
4.0
Wind Variable Wind from NW
Gusts 5.0 mph

Today
High -- | Low -- °F
--% Chance of Precip.
Yesterday
High -- | Low -- °F
Precip. -- in
Pressure 29.95 in
Visibility -9999.0 miles
Clouds
Dew Point 51 °F
Humidity 71%
Rainfall 0.00 in
Snow Depth Not available.
5:42 AM 8:09 PM
Waxing Crescent, 42% visible
METAR YSCB 061400Z AUTO 33005KT //// // NCD 16/10 Q1014
Pressure 29.95 in
Visibility -9999.0 miles
Clouds
Dew Point 51 °F
Humidity 71%
Rainfall 0.00 in
Snow Depth Not available.
5:42 AM 8:09 PM
Waxing Crescent, 42% visible
METAR YSCB 061400Z AUTO 33005KT //// // NCD 16/10 Q1014

10-Day Weather Forecast

×

Almanac

Astronomy

Dec. 07, 2016 Rise Set
Actual Time
Civil Twilight
Nautical Twilight
Astronomical Twilight
Moon
Length of Visible Light
Length of Day
Tomorrow will be .
, % of the Moon is Illuminated

Today's Extremes

Country Highs Country Lows

Community

WunderPhotos

Upload Photos

1,955,949 photos uploaded!

WunderBlog® & News

Nearby

Air Quality

  Air Quality AQ Index Pollutant
Not available.

Snow Depth

Station Depth Elevation

Earthquake Activity

City Distance Mag. Time & Date
Minimum magnitude displayed is 2.5.

Coastal Water Temperatures

Place Temperature

Stations

Nearby Weather Stations

Station Location Temp. Windchill Dew Point Humidity Wind Precip. Elev Updated Type